sensor_id;sensor_type;location;lat;lon;timestamp;temperature;humidity
4429;DHT22;2227;47.810;8.810;2023-10-08T04:33:17;9.50;99.90
4429;DHT22;2227;47.810;8.810;2023-10-08T04:35:46;9.60;99.90
4429;DHT22;2227;47.810;8.810;2023-10-08T04:38:25;9.60;99.90
4429;DHT22;2227;47.810;8.810;2023-10-08T04:40:53;9.50;99.90
4429;DHT22;2227;47.810;8.810;2023-10-08T04:43:25;9.50;99.90
4429;DHT22;2227;47.810;8.810;2023-10-08T04:45:58;9.50;99.90
4429;DHT22;2227;47.810;8.810;2023-10-08T04:48:25;9.50;99.90
4429;DHT22;2227;47.810;8.810;2023-10-08T04:50:58;9.40;99.90
4429;DHT22;2227;47.810;8.810;2023-10-08T04:53:26;9.40;99.90
4429;DHT22;2227;47.810;8.810;2023-10-08T04:56:03;9.40;99.90
4429;DHT22;2227;47.810;8.810;2023-10-08T04:58:33;9.40;99.90
4429;DHT22;2227;47.810;8.810;2023-10-08T05:01:03;9.30;99.90
4429;DHT22;2227;47.810;8.810;2023-10-08T05:03:50;9.30;99.90
4429;DHT22;2227;47.810;8.810;2023-10-08T05:06:31;9.40;99.90
4429;DHT22;2227;47.810;8.810;2023-10-08T05:09:11;9.40;99.90
4429;DHT22;2227;47.810;8.810;2023-10-08T05:14:20;9.30;99.90
4429;DHT22;2227;47.810;8.810;2023-10-08T05:17:05;9.30;99.90
4429;DHT22;2227;47.810;8.810;2023-10-08T05:19:58;9.30;99.90
4429;DHT22;2227;47.810;8.810;2023-10-08T05:22:34;9.30;99.90
4429;DHT22;2227;47.810;8.810;2023-10-08T05:25:10;9.40;99.90
4429;DHT22;2227;47.810;8.810;2023-10-08T05:27:57;9.40;99.90
4429;DHT22;2227;47.810;8.810;2023-10-08T05:30:26;9.30;99.90
4429;DHT22;2227;47.810;8.810;2023-10-08T05:33:05;9.40;99.90
4429;DHT22;2227;47.810;8.810;2023-10-08T05:35:36;9.40;99.90
4429;DHT22;2227;47.810;8.810;2023-10-08T05:38:10;9.50;99.90
4429;DHT22;2227;47.810;8.810;2023-10-08T05:40:43;9.50;99.90
4429;DHT22;2227;47.810;8.810;2023-10-08T05:43:36;9.50;99.90
4429;DHT22;2227;47.810;8.810;2023-10-08T05:46:08;9.50;99.90
4429;DHT22;2227;47.810;8.810;2023-10-08T05:48:58;9.40;99.90
4429;DHT22;2227;47.810;8.810;2023-10-08T05:51:39;9.40;99.90
4429;DHT22;2227;47.810;8.810;2023-10-08T05:54:19;9.50;99.90
4429;DHT22;2227;47.810;8.810;2023-10-08T05:57:03;9.50;99.90
4429;DHT22;2227;47.810;8.810;2023-10-08T05:59:34;9.50;99.90
4429;DHT22;2227;47.810;8.810;2023-10-08T06:02:20;9.40;99.90
4429;DHT22;2227;47.810;8.810;2023-10-08T06:05:05;9.40;99.90
4429;DHT22;2227;47.810;8.810;2023-10-08T06:13:12;9.50;99.90
4429;DHT22;2227;47.810;8.810;2023-10-08T06:16:11;9.60;99.90
4429;DHT22;2227;47.810;8.810;2023-10-08T06:18:57;9.60;99.90
4429;DHT22;2227;47.810;8.810;2023-10-08T06:21:24;9.60;99.90
4429;DHT22;2227;47.810;8.810;2023-10-08T06:23:53;9.60;99.90
4429;DHT22;2227;47.810;8.810;2023-10-08T06:26:23;9.70;99.90
4429;DHT22;2227;47.810;8.810;2023-10-08T06:28:51;9.80;99.90
4429;DHT22;2227;47.810;8.810;2023-10-08T06:31:24;9.80;99.90
4429;DHT22;2227;47.810;8.810;2023-10-08T06:33:52;9.90;99.90
4429;DHT22;2227;47.810;8.810;2023-10-08T06:36:19;10.00;99.90
4429;DHT22;2227;47.810;8.810;2023-10-08T06:38:50;10.10;99.90
4429;DHT22;2227;47.810;8.810;2023-10-08T06:41:18;10.20;99.90
4429;DHT22;2227;47.810;8.810;2023-10-08T06:44:04;10.30;99.90
4429;DHT22;2227;47.810;8.810;2023-10-08T06:46:41;10.40;99.90
4429;DHT22;2227;47.810;8.810;2023-10-08T06:49:09;10.50;99.90
4429;DHT22;2227;47.810;8.810;2023-10-08T06:51:41;10.60;99.90
4429;DHT22;2227;47.810;8.810;2023-10-08T06:54:10;10.80;99.90
4429;DHT22;2227;47.810;8.810;2023-10-08T06:56:41;11.00;99.90
4429;DHT22;2227;47.810;8.810;2023-10-08T06:59:13;11.10;99.90
4429;DHT22;2227;47.810;8.810;2023-10-08T07:01:40;11.30;99.90
4429;DHT22;2227;47.810;8.810;2023-10-08T07:04:12;11.50;99.90
4429;DHT22;2227;47.810;8.810;2023-10-08T07:06:40;11.70;99.90
4429;DHT22;2227;47.810;8.810;2023-10-08T07:09:07;11.90;99.90
4429;DHT22;2227;47.810;8.810;2023-10-08T07:11:56;12.10;99.90
4429;DHT22;2227;47.810;8.810;2023-10-08T07:14:25;12.20;99.90
4429;DHT22;2227;47.810;8.810;2023-10-08T07:16:57;12.40;99.90
4429;DHT22;2227;47.810;8.810;2023-10-08T07:19:26;12.50;99.90
4429;DHT22;2227;47.810;8.810;2023-10-08T07:22:04;12.90;99.90
4429;DHT22;2227;47.810;8.810;2023-10-08T07:24:44;13.50;99.90
4429;DHT22;2227;47.810;8.810;2023-10-08T07:27:19;14.20;99.90
4429;DHT22;2227;47.810;8.810;2023-10-08T07:29:50;15.00;99.90
4429;DHT22;2227;47.810;8.810;2023-10-08T07:32:22;16.00;99.90
4429;DHT22;2227;47.810;8.810;2023-10-08T07:34:48;16.90;99.90
4429;DHT22;2227;47.810;8.810;2023-10-08T07:37:23;17.90;99.90
4429;DHT22;2227;47.810;8.810;2023-10-08T07:39:52;18.80;99.90
4429;DHT22;2227;47.810;8.810;2023-10-08T07:42:21;19.60;99.90
4429;DHT22;2227;47.810;8.810;2023-10-08T07:44:48;20.40;99.90
4429;DHT22;2227;47.810;8.810;2023-10-08T07:47:17;21.10;99.90
4429;DHT22;2227;47.810;8.810;2023-10-08T07:49:48;21.70;99.90
4429;DHT22;2227;47.810;8.810;2023-10-08T07:52:14;22.00;99.90
4429;DHT22;2227;47.810;8.810;2023-10-08T07:54:43;22.30;98.60
4429;DHT22;2227;47.810;8.810;2023-10-08T07:57:10;22.60;97.50
4429;DHT22;2227;47.810;8.810;2023-10-08T07:59:40;22.70;97.00
4429;DHT22;2227;47.810;8.810;2023-10-08T08:02:16;22.70;96.30
4429;DHT22;2227;47.810;8.810;2023-10-08T08:04:45;23.00;95.80
4429;DHT22;2227;47.810;8.810;2023-10-08T08:07:13;23.50;94.70
4429;DHT22;2227;47.810;8.810;2023-10-08T08:09:43;24.00;93.80
4429;DHT22;2227;47.810;8.810;2023-10-08T08:12:18;24.50;92.20
4429;DHT22;2227;47.810;8.810;2023-10-08T08:14:46;24.90;91.60
4429;DHT22;2227;47.810;8.810;2023-10-08T08:17:13;25.40;90.40
4429;DHT22;2227;47.810;8.810;2023-10-08T08:19:40;25.80;88.00
4429;DHT22;2227;47.810;8.810;2023-10-08T08:22:07;26.40;84.20
4429;DHT22;2227;47.810;8.810;2023-10-08T08:24:34;26.80;80.70
4429;DHT22;2227;47.810;8.810;2023-10-08T08:27:04;27.20;77.70
4429;DHT22;2227;47.810;8.810;2023-10-08T08:29:51;27.30;78.00
4429;DHT22;2227;47.810;8.810;2023-10-08T08:32:22;27.70;76.40
4429;DHT22;2227;47.810;8.810;2023-10-08T08:34:50;28.30;74.20
4429;DHT22;2227;47.810;8.810;2023-10-08T08:37:17;28.80;71.70
4429;DHT22;2227;47.810;8.810;2023-10-08T08:39:44;29.20;69.90
4429;DHT22;2227;47.810;8.810;2023-10-08T08:42:12;29.80;68.30
4429;DHT22;2227;47.810;8.810;2023-10-08T08:44:43;30.20;66.30
4429;DHT22;2227;47.810;8.810;2023-10-08T08:47:13;30.70;64.80
4429;DHT22;2227;47.810;8.810;2023-10-08T08:49:45;31.10;63.80
4429;DHT22;2227;47.810;8.810;2023-10-08T08:52:12;31.10;63.90
4429;DHT22;2227;47.810;8.810;2023-10-08T08:54:41;31.50;63.50
4429;DHT22;2227;47.810;8.810;2023-10-08T08:57:10;31.90;63.10
4429;DHT22;2227;47.810;8.810;2023-10-08T09:00:03;32.20;62.90
4429;DHT22;2227;47.810;8.810;2023-10-08T09:02:36;32.70;61.40
4429;DHT22;2227;47.810;8.810;2023-10-08T09:05:04;32.70;60.50
4429;DHT22;2227;47.810;8.810;2023-10-08T09:10:26;34.10;58.30
4429;DHT22;2227;47.810;8.810;2023-10-08T09:12:57;34.40;57.80
4429;DHT22;2227;47.810;8.810;2023-10-08T09:15:27;34.00;57.00
4429;DHT22;2227;47.810;8.810;2023-10-08T09:17:58;31.50;60.00
4429;DHT22;2227;47.810;8.810;2023-10-08T09:20:31;31.40;61.30
4429;DHT22;2227;47.810;8.810;2023-10-08T09:25:34;31.90;59.70
4429;DHT22;2227;47.810;8.810;2023-10-08T09:28:02;31.90;59.90
4429;DHT22;2227;47.810;8.810;2023-10-08T09:30:30;32.30;59.30
4429;DHT22;2227;47.810;8.810;2023-10-08T09:32:57;31.90;60.50
4429;DHT22;2227;47.810;8.810;2023-10-08T09:35:24;31.80;59.30
4429;DHT22;2227;47.810;8.810;2023-10-08T09:37:53;31.40;59.10
4429;DHT22;2227;47.810;8.810;2023-10-08T09:40:21;30.40;62.00
4429;DHT22;2227;47.810;8.810;2023-10-08T09:42:48;30.50;61.70
4429;DHT22;2227;47.810;8.810;2023-10-08T09:45:14;31.40;60.50
4429;DHT22;2227;47.810;8.810;2023-10-08T09:47:50;31.90;59.60
4429;DHT22;2227;47.810;8.810;2023-10-08T09:50:27;31.30;60.60
4429;DHT22;2227;47.810;8.810;2023-10-08T09:53:13;30.80;62.00
4429;DHT22;2227;47.810;8.810;2023-10-08T09:55:53;31.60;60.80
4429;DHT22;2227;47.810;8.810;2023-10-08T09:58:21;32.50;59.20
4429;DHT22;2227;47.810;8.810;2023-10-08T10:00:49;32.50;59.50
4429;DHT22;2227;47.810;8.810;2023-10-08T10:03:18;33.40;58.50
4429;DHT22;2227;47.810;8.810;2023-10-08T10:05:48;34.70;56.40
4429;DHT22;2227;47.810;8.810;2023-10-08T10:08:15;35.80;54.30
4429;DHT22;2227;47.810;8.810;2023-10-08T10:10:43;36.20;53.00
4429;DHT22;2227;47.810;8.810;2023-10-08T10:13:16;35.10;54.10
4429;DHT22;2227;47.810;8.810;2023-10-08T10:15:43;34.20;55.00
4429;DHT22;2227;47.810;8.810;2023-10-08T10:18:17;33.50;55.70
4429;DHT22;2227;47.810;8.810;2023-10-08T10:21:24;32.80;55.70
4429;DHT22;2227;47.810;8.810;2023-10-08T10:23:52;31.00;58.20
4429;DHT22;2227;47.810;8.810;2023-10-08T10:26:36;30.40;59.20
4429;DHT22;2227;47.810;8.810;2023-10-08T10:31:44;31.70;58.50
4429;DHT22;2227;47.810;8.810;2023-10-08T10:34:14;32.50;57.20
4429;DHT22;2227;47.810;8.810;2023-10-08T10:36:45;32.60;56.50
4429;DHT22;2227;47.810;8.810;2023-10-08T10:39:16;32.80;56.70
4429;DHT22;2227;47.810;8.810;2023-10-08T10:41:45;33.20;56.50
4429;DHT22;2227;47.810;8.810;2023-10-08T10:44:12;34.10;55.30
4429;DHT22;2227;47.810;8.810;2023-10-08T10:46:44;34.50;53.50
4429;DHT22;2227;47.810;8.810;2023-10-08T10:49:21;34.20;53.60
4429;DHT22;2227;47.810;8.810;2023-10-08T10:51:49;33.60;54.00
4429;DHT22;2227;47.810;8.810;2023-10-08T10:54:20;33.20;54.20
4429;DHT22;2227;47.810;8.810;2023-10-08T10:56:51;32.20;55.60
4429;DHT22;2227;47.810;8.810;2023-10-08T10:59:30;32.00;56.70
4429;DHT22;2227;47.810;8.810;2023-10-08T11:02:07;32.70;56.50
4429;DHT22;2227;47.810;8.810;2023-10-08T11:05:03;33.30;55.20
4429;DHT22;2227;47.810;8.810;2023-10-08T11:07:47;33.80;54.40
4429;DHT22;2227;47.810;8.810;2023-10-08T11:10:15;33.80;53.80
4429;DHT22;2227;47.810;8.810;2023-10-08T11:12:42;33.40;54.10
4429;DHT22;2227;47.810;8.810;2023-10-08T11:15:13;32.90;55.10
4429;DHT22;2227;47.810;8.810;2023-10-08T11:17:44;32.40;56.00
4429;DHT22;2227;47.810;8.810;2023-10-08T11:20:27;32.10;55.70
4429;DHT22;2227;47.810;8.810;2023-10-08T11:22:54;32.00;56.20
4429;DHT22;2227;47.810;8.810;2023-10-08T11:25:22;31.80;56.60
4429;DHT22;2227;47.810;8.810;2023-10-08T11:27:57;31.80;56.80
4429;DHT22;2227;47.810;8.810;2023-10-08T11:30:35;31.90;56.70
4429;DHT22;2227;47.810;8.810;2023-10-08T11:33:02;31.60;57.30
4429;DHT22;2227;47.810;8.810;2023-10-08T11:35:33;31.50;57.70
4429;DHT22;2227;47.810;8.810;2023-10-08T11:38:01;31.40;57.90
4429;DHT22;2227;47.810;8.810;2023-10-08T11:40:29;31.00;58.60
4429;DHT22;2227;47.810;8.810;2023-10-08T11:42:57;30.80;59.00
4429;DHT22;2227;47.810;8.810;2023-10-08T11:45:26;31.00;59.00
4429;DHT22;2227;47.810;8.810;2023-10-08T11:47:54;31.30;58.70
4429;DHT22;2227;47.810;8.810;2023-10-08T11:50:29;31.60;59.10
4429;DHT22;2227;47.810;8.810;2023-10-08T11:53:02;31.90;58.00
4429;DHT22;2227;47.810;8.810;2023-10-08T11:55:33;31.50;57.40
4429;DHT22;2227;47.810;8.810;2023-10-08T11:58:06;31.20;57.70
4429;DHT22;2227;47.810;8.810;2023-10-08T12:00:44;31.10;57.40
4429;DHT22;2227;47.810;8.810;2023-10-08T12:03:16;30.60;58.50
4429;DHT22;2227;47.810;8.810;2023-10-08T12:05:48;30.80;58.70
4429;DHT22;2227;47.810;8.810;2023-10-08T12:08:19;30.60;60.00
4429;DHT22;2227;47.810;8.810;2023-10-08T12:10:48;30.70;59.50
4429;DHT22;2227;47.810;8.810;2023-10-08T12:13:15;30.60;58.80
4429;DHT22;2227;47.810;8.810;2023-10-08T12:15:45;30.10;58.80
4429;DHT22;2227;47.810;8.810;2023-10-08T12:18:12;30.10;59.30
4429;DHT22;2227;47.810;8.810;2023-10-08T12:20:42;30.10;59.60
4429;DHT22;2227;47.810;8.810;2023-10-08T12:23:13;30.20;59.80
4429;DHT22;2227;47.810;8.810;2023-10-08T12:26:06;30.30;58.90
4429;DHT22;2227;47.810;8.810;2023-10-08T12:28:35;30.40;59.30
4429;DHT22;2227;47.810;8.810;2023-10-08T12:31:02;30.40;59.20
4429;DHT22;2227;47.810;8.810;2023-10-08T12:33:30;30.50;59.10
4429;DHT22;2227;47.810;8.810;2023-10-08T12:35:58;30.10;59.10
4429;DHT22;2227;47.810;8.810;2023-10-08T12:38:37;29.90;58.90
4429;DHT22;2227;47.810;8.810;2023-10-08T12:41:05;29.50;59.00
4429;DHT22;2227;47.810;8.810;2023-10-08T12:43:43;29.20;59.70
4429;DHT22;2227;47.810;8.810;2023-10-08T12:46:19;29.00;61.00
4429;DHT22;2227;47.810;8.810;2023-10-08T12:48:51;28.50;61.80
4429;DHT22;2227;47.810;8.810;2023-10-08T12:51:25;28.40;62.20
4429;DHT22;2227;47.810;8.810;2023-10-08T12:53:53;28.40;61.70
4429;DHT22;2227;47.810;8.810;2023-10-08T12:56:31;28.40;62.90
4429;DHT22;2227;47.810;8.810;2023-10-08T12:59:16;28.60;61.80
4429;DHT22;2227;47.810;8.810;2023-10-08T13:01:51;28.70;62.00
4429;DHT22;2227;47.810;8.810;2023-10-08T13:04:18;28.50;62.70
4429;DHT22;2227;47.810;8.810;2023-10-08T13:06:58;28.30;63.00
4429;DHT22;2227;47.810;8.810;2023-10-08T13:09:31;28.10;63.60
4429;DHT22;2227;47.810;8.810;2023-10-08T13:11:58;28.10;64.20
4429;DHT22;2227;47.810;8.810;2023-10-08T13:14:26;28.00;64.80
4429;DHT22;2227;47.810;8.810;2023-10-08T13:16:53;28.00;65.80
4429;DHT22;2227;47.810;8.810;2023-10-08T13:19:20;27.80;65.80
4429;DHT22;2227;47.810;8.810;2023-10-08T13:21:50;27.80;66.20
4429;DHT22;2227;47.810;8.810;2023-10-08T13:24:19;27.70;67.20
4429;DHT22;2227;47.810;8.810;2023-10-08T13:26:50;27.80;67.20
4429;DHT22;2227;47.810;8.810;2023-10-08T13:29:17;27.90;66.90
4429;DHT22;2227;47.810;8.810;2023-10-08T13:31:45;28.00;67.60
4429;DHT22;2227;47.810;8.810;2023-10-08T13:34:13;28.20;67.50
4429;DHT22;2227;47.810;8.810;2023-10-08T13:36:42;28.30;66.10
4429;DHT22;2227;47.810;8.810;2023-10-08T13:39:10;28.60;66.00
4429;DHT22;2227;47.810;8.810;2023-10-08T13:41:45;28.70;65.80
4429;DHT22;2227;47.810;8.810;2023-10-08T13:44:15;28.50;64.60
4429;DHT22;2227;47.810;8.810;2023-10-08T13:46:42;28.00;65.50
4429;DHT22;2227;47.810;8.810;2023-10-08T13:49:16;27.80;66.50
4429;DHT22;2227;47.810;8.810;2023-10-08T13:51:43;27.70;66.70
4429;DHT22;2227;47.810;8.810;2023-10-08T13:54:11;27.80;67.20
4429;DHT22;2227;47.810;8.810;2023-10-08T13:56:38;27.70;66.80
4429;DHT22;2227;47.810;8.810;2023-10-08T13:59:08;27.70;68.30
4429;DHT22;2227;47.810;8.810;2023-10-08T14:01:42;27.70;68.60
4429;DHT22;2227;47.810;8.810;2023-10-08T14:04:18;27.90;68.90
4429;DHT22;2227;47.810;8.810;2023-10-08T14:06:47;28.00;69.30
4429;DHT22;2227;47.810;8.810;2023-10-08T14:09:18;28.20;68.80
4429;DHT22;2227;47.810;8.810;2023-10-08T14:11:59;28.70;67.70
4429;DHT22;2227;47.810;8.810;2023-10-08T14:14:27;29.10;66.20
4429;DHT22;2227;47.810;8.810;2023-10-08T14:17:01;29.10;67.30
4429;DHT22;2227;47.810;8.810;2023-10-08T14:19:35;28.80;67.50
4429;DHT22;2227;47.810;8.810;2023-10-08T14:22:26;28.50;68.90
4429;DHT22;2227;47.810;8.810;2023-10-08T14:24:53;27.90;71.20
4429;DHT22;2227;47.810;8.810;2023-10-08T14:27:29;27.70;72.30
4429;DHT22;2227;47.810;8.810;2023-10-08T14:30:00;27.40;73.50
4429;DHT22;2227;47.810;8.810;2023-10-08T14:32:32;27.10;75.70
4429;DHT22;2227;47.810;8.810;2023-10-08T14:34:59;26.80;74.80
4429;DHT22;2227;47.810;8.810;2023-10-08T14:37:45;26.70;77.30
4429;DHT22;2227;47.810;8.810;2023-10-08T14:40:30;26.50;78.50
4429;DHT22;2227;47.810;8.810;2023-10-08T14:43:16;26.50;80.00
4429;DHT22;2227;47.810;8.810;2023-10-08T14:45:46;26.50;78.30
4429;DHT22;2227;47.810;8.810;2023-10-08T14:48:14;26.80;78.80
4429;DHT22;2227;47.810;8.810;2023-10-08T14:50:41;27.30;79.70
4429;DHT22;2227;47.810;8.810;2023-10-08T14:53:09;27.60;77.40
4429;DHT22;2227;47.810;8.810;2023-10-08T14:55:36;27.80;79.00
4429;DHT22;2227;47.810;8.810;2023-10-08T14:58:07;28.00;78.20
4429;DHT22;2227;47.810;8.810;2023-10-08T15:00:38;28.00;77.50
4429;DHT22;2227;47.810;8.810;2023-10-08T15:03:06;28.00;77.10
4429;DHT22;2227;47.810;8.810;2023-10-08T15:05:33;28.10;78.20
4429;DHT22;2227;47.810;8.810;2023-10-08T15:08:03;28.20;76.70
4429;DHT22;2227;47.810;8.810;2023-10-08T15:10:36;28.10;75.40
4429;DHT22;2227;47.810;8.810;2023-10-08T15:13:03;28.10;74.20
4429;DHT22;2227;47.810;8.810;2023-10-08T15:15:30;27.90;75.20
4429;DHT22;2227;47.810;8.810;2023-10-08T15:18:01;27.80;76.50
4429;DHT22;2227;47.810;8.810;2023-10-08T15:20:39;27.60;76.90
4429;DHT22;2227;47.810;8.810;2023-10-08T15:23:07;27.40;75.40
4429;DHT22;2227;47.810;8.810;2023-10-08T15:25:38;27.20;80.30
4429;DHT22;2227;47.810;8.810;2023-10-08T15:28:06;26.60;79.70
4429;DHT22;2227;47.810;8.810;2023-10-08T15:30:32;26.30;79.50
4429;DHT22;2227;47.810;8.810;2023-10-08T15:32:59;26.10;80.60
4429;DHT22;2227;47.810;8.810;2023-10-08T15:35:26;25.90;83.80
4429;DHT22;2227;47.810;8.810;2023-10-08T15:37:53;25.80;83.20
4429;DHT22;2227;47.810;8.810;2023-10-08T15:40:21;25.50;83.90
4429;DHT22;2227;47.810;8.810;2023-10-08T15:42:54;25.30;84.10
4429;DHT22;2227;47.810;8.810;2023-10-08T15:45:24;25.10;86.10
4429;DHT22;2227;47.810;8.810;2023-10-08T15:47:52;25.00;88.00
4429;DHT22;2227;47.810;8.810;2023-10-08T15:50:20;24.90;86.10
4429;DHT22;2227;47.810;8.810;2023-10-08T15:52:48;24.80;88.00
4429;DHT22;2227;47.810;8.810;2023-10-08T15:55:16;24.70;87.90
4429;DHT22;2227;47.810;8.810;2023-10-08T15:57:44;24.70;90.00
4429;DHT22;2227;47.810;8.810;2023-10-08T16:00:11;24.70;90.40
4429;DHT22;2227;47.810;8.810;2023-10-08T16:02:38;24.70;90.20
4429;DHT22;2227;47.810;8.810;2023-10-08T16:05:05;24.60;90.60
4429;DHT22;2227;47.810;8.810;2023-10-08T16:07:34;24.40;88.20
4429;DHT22;2227;47.810;8.810;2023-10-08T16:10:01;24.30;90.10
4429;DHT22;2227;47.810;8.810;2023-10-08T16:12:28;24.00;90.90
4429;DHT22;2227;47.810;8.810;2023-10-08T16:14:54;23.80;91.60
4429;DHT22;2227;47.810;8.810;2023-10-08T16:17:21;23.60;92.20
4429;DHT22;2227;47.810;8.810;2023-10-08T16:19:48;23.50;92.10
4429;DHT22;2227;47.810;8.810;2023-10-08T16:22:15;23.20;92.50
4429;DHT22;2227;47.810;8.810;2023-10-08T16:24:43;22.90;93.10
4429;DHT22;2227;47.810;8.810;2023-10-08T16:27:09;22.60;94.10
4429;DHT22;2227;47.810;8.810;2023-10-08T16:29:36;22.40;94.80
4429;DHT22;2227;47.810;8.810;2023-10-08T16:32:03;22.20;95.60
4429;DHT22;2227;47.810;8.810;2023-10-08T16:34:32;22.00;96.00
4429;DHT22;2227;47.810;8.810;2023-10-08T16:37:01;21.80;96.60
4429;DHT22;2227;47.810;8.810;2023-10-08T16:39:28;21.80;97.40
4429;DHT22;2227;47.810;8.810;2023-10-08T16:41:57;21.70;97.60
4429;DHT22;2227;47.810;8.810;2023-10-08T16:44:24;21.60;98.20
4429;DHT22;2227;47.810;8.810;2023-10-08T16:46:51;21.50;98.10
4429;DHT22;2227;47.810;8.810;2023-10-08T16:49:19;21.30;98.50
4429;DHT22;2227;47.810;8.810;2023-10-08T16:51:47;21.00;99.30
4429;DHT22;2227;47.810;8.810;2023-10-08T16:54:14;20.70;99.90
4429;DHT22;2227;47.810;8.810;2023-10-08T16:56:42;20.60;99.90
4429;DHT22;2227;47.810;8.810;2023-10-08T16:59:11;20.50;99.90
4429;DHT22;2227;47.810;8.810;2023-10-08T17:01:41;20.30;99.90
4429;DHT22;2227;47.810;8.810;2023-10-08T17:04:08;20.20;99.90
4429;DHT22;2227;47.810;8.810;2023-10-08T17:06:35;20.10;99.90
4429;DHT22;2227;47.810;8.810;2023-10-08T17:09:02;20.00;99.90
4429;DHT22;2227;47.810;8.810;2023-10-08T17:11:37;19.90;99.90
4429;DHT22;2227;47.810;8.810;2023-10-08T17:14:04;19.80;99.90
4429;DHT22;2227;47.810;8.810;2023-10-08T17:16:31;19.70;99.90
4429;DHT22;2227;47.810;8.810;2023-10-08T17:18:57;19.70;99.90
4429;DHT22;2227;47.810;8.810;2023-10-08T17:21:25;19.60;99.90
4429;DHT22;2227;47.810;8.810;2023-10-08T17:23:55;19.50;99.90
4429;DHT22;2227;47.810;8.810;2023-10-08T17:26:21;19.40;99.90
4429;DHT22;2227;47.810;8.810;2023-10-08T17:28:48;19.40;99.90
4429;DHT22;2227;47.810;8.810;2023-10-08T17:31:15;19.30;99.90
4429;DHT22;2227;47.810;8.810;2023-10-08T17:33:42;19.20;99.90
4429;DHT22;2227;47.810;8.810;2023-10-08T17:36:11;19.00;99.90
4429;DHT22;2227;47.810;8.810;2023-10-08T17:38:37;18.80;99.90
4429;DHT22;2227;47.810;8.810;2023-10-08T17:41:07;18.80;99.90
4429;DHT22;2227;47.810;8.810;2023-10-08T17:43:35;18.70;99.90
4429;DHT22;2227;47.810;8.810;2023-10-08T17:46:03;18.60;99.90
4429;DHT22;2227;47.810;8.810;2023-10-08T17:48:33;18.50;99.90
4429;DHT22;2227;47.810;8.810;2023-10-08T17:51:03;18.50;99.90
4429;DHT22;2227;47.810;8.810;2023-10-08T17:53:33;18.40;99.90
4429;DHT22;2227;47.810;8.810;2023-10-08T17:55:59;18.30;99.90
4429;DHT22;2227;47.810;8.810;2023-10-08T17:58:26;18.20;99.90
4429;DHT22;2227;47.810;8.810;2023-10-08T18:00:53;18.10;99.90
4429;DHT22;2227;47.810;8.810;2023-10-08T18:03:20;18.10;99.90
4429;DHT22;2227;47.810;8.810;2023-10-08T18:05:47;18.10;99.90
4429;DHT22;2227;47.810;8.810;2023-10-08T18:08:15;18.00;99.90
4429;DHT22;2227;47.810;8.810;2023-10-08T18:10:42;18.00;99.90
4429;DHT22;2227;47.810;8.810;2023-10-08T18:13:08;17.90;99.90
4429;DHT22;2227;47.810;8.810;2023-10-08T18:15:36;17.80;99.90
4429;DHT22;2227;47.810;8.810;2023-10-08T18:18:04;17.80;99.90
4429;DHT22;2227;47.810;8.810;2023-10-08T18:20:36;17.70;99.90
4429;DHT22;2227;47.810;8.810;2023-10-08T18:23:10;17.60;99.90
4429;DHT22;2227;47.810;8.810;2023-10-08T18:25:38;17.60;99.90
4429;DHT22;2227;47.810;8.810;2023-10-08T18:28:05;17.50;99.90
4429;DHT22;2227;47.810;8.810;2023-10-08T18:30:32;17.40;99.90
4429;DHT22;2227;47.810;8.810;2023-10-08T18:32:59;17.40;99.90
4429;DHT22;2227;47.810;8.810;2023-10-08T18:35:26;17.30;99.90
4429;DHT22;2227;47.810;8.810;2023-10-08T18:37:53;17.30;99.90
4429;DHT22;2227;47.810;8.810;2023-10-08T18:40:27;17.20;99.90
4429;DHT22;2227;47.810;8.810;2023-10-08T18:42:57;17.20;99.90
4429;DHT22;2227;47.810;8.810;2023-10-08T18:45:24;17.10;99.90
4429;DHT22;2227;47.810;8.810;2023-10-08T18:47:51;17.00;99.90
4429;DHT22;2227;47.810;8.810;2023-10-08T18:50:18;17.00;99.90
4429;DHT22;2227;47.810;8.810;2023-10-08T18:52:49;16.90;99.90
4429;DHT22;2227;47.810;8.810;2023-10-08T18:55:18;16.90;99.90
4429;DHT22;2227;47.810;8.810;2023-10-08T18:57:47;16.90;99.90
4429;DHT22;2227;47.810;8.810;2023-10-08T19:00:19;16.80;99.90
4429;DHT22;2227;47.810;8.810;2023-10-08T19:02:47;16.70;99.90
4429;DHT22;2227;47.810;8.810;2023-10-08T19:05:16;16.70;99.90
4429;DHT22;2227;47.810;8.810;2023-10-08T19:07:45;16.60;99.90
4429;DHT22;2227;47.810;8.810;2023-10-08T19:10:12;16.50;99.90
4429;DHT22;2227;47.810;8.810;2023-10-08T19:12:42;16.60;99.90
4429;DHT22;2227;47.810;8.810;2023-10-08T19:15:10;16.40;99.90
4429;DHT22;2227;47.810;8.810;2023-10-08T19:17:41;16.40;99.90
4429;DHT22;2227;47.810;8.810;2023-10-08T19:20:17;16.40;99.90
4429;DHT22;2227;47.810;8.810;2023-10-08T19:22:43;16.30;99.90
4429;DHT22;2227;47.810;8.810;2023-10-08T19:25:12;16.30;99.90
4429;DHT22;2227;47.810;8.810;2023-10-08T19:27:42;16.20;99.90
4429;DHT22;2227;47.810;8.810;2023-10-08T19:30:09;16.20;99.90
4429;DHT22;2227;47.810;8.810;2023-10-08T19:32:39;16.20;99.90
4429;DHT22;2227;47.810;8.810;2023-10-08T19:35:06;16.00;99.90
4429;DHT22;2227;47.810;8.810;2023-10-08T19:37:36;15.90;99.90
4429;DHT22;2227;47.810;8.810;2023-10-08T19:40:05;15.90;99.90
4429;DHT22;2227;47.810;8.810;2023-10-08T19:42:37;15.80;99.90
4429;DHT22;2227;47.810;8.810;2023-10-08T19:45:09;15.80;99.90
4429;DHT22;2227;47.810;8.810;2023-10-08T19:47:46;15.60;99.90
4429;DHT22;2227;47.810;8.810;2023-10-08T19:50:13;15.60;99.90
4429;DHT22;2227;47.810;8.810;2023-10-08T19:52:46;15.60;99.90
4429;DHT22;2227;47.810;8.810;2023-10-08T19:55:16;15.50;99.90
4429;DHT22;2227;47.810;8.810;2023-10-08T19:57:43;15.60;99.90
4429;DHT22;2227;47.810;8.810;2023-10-08T20:00:11;15.60;99.90
4429;DHT22;2227;47.810;8.810;2023-10-08T20:02:45;15.60;99.90
4429;DHT22;2227;47.810;8.810;2023-10-08T20:05:12;15.50;99.90
4429;DHT22;2227;47.810;8.810;2023-10-08T20:07:41;15.40;99.90
4429;DHT22;2227;47.810;8.810;2023-10-08T20:10:11;15.20;99.90
4429;DHT22;2227;47.810;8.810;2023-10-08T20:12:48;15.30;99.90
4429;DHT22;2227;47.810;8.810;2023-10-08T20:15:16;15.30;99.90
4429;DHT22;2227;47.810;8.810;2023-10-08T20:17:45;15.20;99.90
4429;DHT22;2227;47.810;8.810;2023-10-08T20:20:13;15.20;99.90
4429;DHT22;2227;47.810;8.810;2023-10-08T20:22:50;15.20;99.90
4429;DHT22;2227;47.810;8.810;2023-10-08T20:25:20;15.10;99.90
4429;DHT22;2227;47.810;8.810;2023-10-08T20:27:51;15.10;99.90
4429;DHT22;2227;47.810;8.810;2023-10-08T20:30:18;15.10;99.90
4429;DHT22;2227;47.810;8.810;2023-10-08T20:32:50;15.10;99.90
4429;DHT22;2227;47.810;8.810;2023-10-08T20:35:20;15.10;99.90
4429;DHT22;2227;47.810;8.810;2023-10-08T20:37:51;14.90;99.90
4429;DHT22;2227;47.810;8.810;2023-10-08T20:40:18;14.80;99.90
4429;DHT22;2227;47.810;8.810;2023-10-08T20:42:52;14.80;99.90
4429;DHT22;2227;47.810;8.810;2023-10-08T20:45:19;14.80;99.90
4429;DHT22;2227;47.810;8.810;2023-10-08T20:47:56;14.80;99.90
4429;DHT22;2227;47.810;8.810;2023-10-08T20:50:27;14.80;99.90
4429;DHT22;2227;47.810;8.810;2023-10-08T20:52:59;14.80;99.90
4429;DHT22;2227;47.810;8.810;2023-10-08T20:58:00;14.80;99.90
4429;DHT22;2227;47.810;8.810;2023-10-08T21:00:28;14.70;99.90
4429;DHT22;2227;47.810;8.810;2023-10-08T21:02:58;14.70;99.90
4429;DHT22;2227;47.810;8.810;2023-10-08T21:05:29;14.60;99.90
4429;DHT22;2227;47.810;8.810;2023-10-08T21:07:57;14.60;99.90
4429;DHT22;2227;47.810;8.810;2023-10-08T21:10:25;14.60;99.90
4429;DHT22;2227;47.810;8.810;2023-10-08T21:12:55;14.60;99.90
4429;DHT22;2227;47.810;8.810;2023-10-08T21:15:23;14.60;99.90
4429;DHT22;2227;47.810;8.810;2023-10-08T21:17:50;14.50;99.90
4429;DHT22;2227;47.810;8.810;2023-10-08T21:20:21;14.50;99.90